createdAt,value
2022-10-23T00:04:52.618Z,91.11
2022-10-23T00:09:55.641Z,91.11
2022-10-23T00:14:58.717Z,91.07
2022-10-23T00:20:01.843Z,90.94
2022-10-23T00:25:07.401Z,90.93
2022-10-23T00:30:11.821Z,91.07
2022-10-23T00:35:15.034Z,91.12
2022-10-23T00:40:18.346Z,91.03
2022-10-23T00:45:27.192Z,91.04
2022-10-23T00:50:33.163Z,91.10
2022-10-23T00:55:38.723Z,91.07
2022-10-23T01:00:48.591Z,91.14
2022-10-23T01:06:08.900Z,91.10
2022-10-23T01:11:30.887Z,91.03
2022-10-23T01:16:52.794Z,91.00
2022-10-23T01:22:16.501Z,90.96
2022-10-23T01:27:41.292Z,91.04
2022-10-23T01:33:10.408Z,91.02
2022-10-23T01:38:33.383Z,91.00
2022-10-23T01:43:45.809Z,90.96
2022-10-23T01:48:53.973Z,90.91
2022-10-23T01:54:01.112Z,90.96
2022-10-23T01:59:11.203Z,91.07
2022-10-23T02:04:23.938Z,91.07
2022-10-23T02:09:27.658Z,91.08
2022-10-23T02:14:53.396Z,91.07
2022-10-23T02:20:17.389Z,91.00
2022-10-23T02:25:30.424Z,91.08
2022-10-23T02:30:37.828Z,91.10
2022-10-23T02:35:41.455Z,91.05
2022-10-23T02:40:47.225Z,90.93
2022-10-23T02:46:09.280Z,90.96
2022-10-23T02:51:21.388Z,90.89
2022-10-23T02:57:02.484Z,90.92
2022-10-23T03:02:25.602Z,90.88
2022-10-23T03:07:29.589Z,90.86
2022-10-23T03:12:32.793Z,90.92
2022-10-23T03:17:35.901Z,90.94
2022-10-23T03:22:40.347Z,90.82
2022-10-23T03:27:43.754Z,90.75
2022-10-23T03:32:46.755Z,90.59
2022-10-23T03:37:49.861Z,90.85
2022-10-23T03:42:52.984Z,90.84
2022-10-23T03:47:56.074Z,90.76
2022-10-23T03:52:59.395Z,90.72
2022-10-23T03:58:02.591Z,90.53
2022-10-23T04:03:05.819Z,90.59
2022-10-23T04:08:10.150Z,90.61
2022-10-23T04:13:13.244Z,90.64
2022-10-23T04:18:17.150Z,90.64
2022-10-23T04:23:20.997Z,90.59
2022-10-23T04:28:24.956Z,90.50
2022-10-23T04:33:29.251Z,90.37
2022-10-23T04:38:32.363Z,90.40
2022-10-23T04:43:35.874Z,90.58
2022-10-23T04:48:38.898Z,90.63
2022-10-23T04:53:41.877Z,90.67
2022-10-23T04:58:44.987Z,90.58
2022-10-23T05:03:48.195Z,90.49
2022-10-23T05:08:51.320Z,90.50
2022-10-23T05:13:54.320Z,90.64
2022-10-23T05:18:58.289Z,90.72
2022-10-23T05:24:02.340Z,90.75
2022-10-23T05:29:05.478Z,90.76
2022-10-23T05:34:11.279Z,90.70
2022-10-23T05:39:17.638Z,90.71
2022-10-23T05:44:21.438Z,90.82
2022-10-23T05:49:26.268Z,90.92
2022-10-23T05:54:29.288Z,90.89
2022-10-23T05:59:32.302Z,90.79
2022-10-23T06:04:36.327Z,90.82
2022-10-23T06:09:39.429Z,90.85
2022-10-23T06:14:42.436Z,90.85
2022-10-23T06:19:46.409Z,90.85
2022-10-23T06:24:49.393Z,90.76
2022-10-23T06:29:52.467Z,90.68
2022-10-23T06:34:55.576Z,90.68
2022-10-23T06:39:58.578Z,90.76
2022-10-23T06:45:04.848Z,90.77
2022-10-23T06:50:13.087Z,90.57
2022-10-23T06:55:19.746Z,90.47
2022-10-23T07:00:23.083Z,90.42
2022-10-23T07:05:26.106Z,90.41
2022-10-23T07:10:29.197Z,90.39
2022-10-23T07:15:32.613Z,90.36
2022-10-23T07:20:35.621Z,90.14
2022-10-23T07:25:38.620Z,89.78
2022-10-23T07:30:41.753Z,89.79
2022-10-23T07:35:46.466Z,89.88
2022-10-23T07:40:49.802Z,90.01
2022-10-23T07:45:54.255Z,89.96
2022-10-23T07:51:08.382Z,89.93
2022-10-23T07:56:18.566Z,89.88
2022-10-23T08:01:38.627Z,89.85
2022-10-23T08:06:41.968Z,89.91
2022-10-23T08:11:44.994Z,89.97
2022-10-23T08:16:48.434Z,89.99
2022-10-23T08:21:54.905Z,90.06
2022-10-23T08:26:58.898Z,90.13
2022-10-23T08:32:05.183Z,90.18
2022-10-23T08:37:08.184Z,90.15
2022-10-23T08:42:25.325Z,90.07
2022-10-23T08:47:44.703Z,90.02
2022-10-23T08:52:59.073Z,89.79
2022-10-23T08:58:11.103Z,89.40
2022-10-23T09:03:14.713Z,88.93
2022-10-23T09:08:44.545Z,88.53
2022-10-23T09:14:05.061Z,88.26
2022-10-23T09:19:17.830Z,88.14
2022-10-23T09:24:24.699Z,88.12
2022-10-23T09:29:36.171Z,88.35
2022-10-23T09:34:55.441Z,88.57
2022-10-23T09:40:34.221Z,88.79
2022-10-23T09:45:39.364Z,88.99
2022-10-23T09:50:53.633Z,89.04
2022-10-23T09:56:01.741Z,88.96
2022-10-23T10:01:05.978Z,88.92
2022-10-23T10:06:32.732Z,88.93
2022-10-23T10:11:44.266Z,88.71
2022-10-23T10:16:55.963Z,88.48
2022-10-23T10:22:36.247Z,88.36
2022-10-23T10:28:06.699Z,88.32
2022-10-23T10:33:31.915Z,88.14
2022-10-23T10:38:44.161Z,88.04
2022-10-23T10:44:09.406Z,88.26
2022-10-23T10:49:33.260Z,88.50
2022-10-23T10:55:14.142Z,88.71
2022-10-23T11:00:23.558Z,88.83
2022-10-23T11:05:34.280Z,88.98
2022-10-23T11:10:44.760Z,89.27
2022-10-23T11:15:48.457Z,89.80
2022-10-23T11:21:11.661Z,90.17
2022-10-23T11:26:36.786Z,90.15
2022-10-23T11:32:20.604Z,90.12
2022-10-23T11:37:27.032Z,90.14
2022-10-23T11:42:34.554Z,90.09
2022-10-23T11:47:42.838Z,90.04
2022-10-23T11:53:13.607Z,89.98
2022-10-23T11:58:33.825Z,89.81
2022-10-23T12:04:00.690Z,89.68
2022-10-23T12:09:22.334Z,89.58
2022-10-23T12:14:29.894Z,89.27
2022-10-23T12:19:50.639Z,89.32
2022-10-23T12:25:23.538Z,89.25
2022-10-23T12:30:51.318Z,89.07
2022-10-23T12:36:08.074Z,88.94
2022-10-23T12:41:18.690Z,88.79
2022-10-23T12:46:43.597Z,88.78
2022-10-23T12:52:14.633Z,88.64
2022-10-23T12:57:28.956Z,88.29
2022-10-23T13:02:33.286Z,87.97
2022-10-23T13:07:44.035Z,87.77
2022-10-23T13:13:05.947Z,87.64
2022-10-23T13:18:13.074Z,87.36
2022-10-23T13:23:35.121Z,87.06
2022-10-23T13:28:46.189Z,86.68
2022-10-23T13:34:19.257Z,86.47
2022-10-23T13:39:30.335Z,86.57
2022-10-23T13:44:33.323Z,86.42
2022-10-23T13:49:36.326Z,86.51
2022-10-23T13:54:39.326Z,86.46
2022-10-23T13:59:43.055Z,86.47
2022-10-23T14:04:47.460Z,86.34
2022-10-23T14:09:50.788Z,86.67
2022-10-23T14:14:54.209Z,86.84
2022-10-23T14:19:57.213Z,86.82
2022-10-23T14:25:00.357Z,86.79
2022-10-23T14:30:04.779Z,86.80
2022-10-23T14:35:08.607Z,86.93
2022-10-23T14:40:11.991Z,86.94
2022-10-23T14:45:15.047Z,86.82
2022-10-23T14:50:19.226Z,86.90
2022-10-23T14:55:22.436Z,86.94
2022-10-23T15:00:26.067Z,87.07
2022-10-23T15:05:29.157Z,87.19
2022-10-23T15:10:32.267Z,87.29
2022-10-23T15:15:35.377Z,87.14
2022-10-23T15:20:38.416Z,87.21
2022-10-23T15:25:42.305Z,87.26
2022-10-23T15:30:46.329Z,87.28
2022-10-23T15:35:50.433Z,87.46
2022-10-23T15:41:13.746Z,87.44
2022-10-23T15:46:16.745Z,87.25
2022-10-23T15:51:21.029Z,87.13
2022-10-23T15:56:25.863Z,87.03
2022-10-23T16:01:29.520Z,87.27
2022-10-23T16:06:32.957Z,87.50
2022-10-23T16:11:39.350Z,87.89
2022-10-23T16:16:42.864Z,87.93
2022-10-23T16:21:46.065Z,87.70
2022-10-23T16:26:53.342Z,87.85
2022-10-23T16:31:57.809Z,87.94
2022-10-23T16:37:00.933Z,87.54
2022-10-23T16:42:04.772Z,87.58
2022-10-23T16:47:07.956Z,87.28
2022-10-23T16:52:11.153Z,87.17
2022-10-23T16:57:14.272Z,87.28
2022-10-23T17:02:17.581Z,87.04
2022-10-23T17:12:25.418Z,87.10
2022-10-23T17:17:28.463Z,87.29
2022-10-23T17:22:31.844Z,87.06
2022-10-23T17:27:35.050Z,87.06
2022-10-23T17:32:38.262Z,87.24
2022-10-23T17:37:41.298Z,87.80
2022-10-23T17:42:44.692Z,87.49
2022-10-23T17:47:48.193Z,87.14
2022-10-23T17:52:51.600Z,87.37
2022-10-23T17:57:54.707Z,87.29
2022-10-23T18:02:57.822Z,87.41
2022-10-23T18:08:01.331Z,87.51
2022-10-23T18:13:04.435Z,87.54
2022-10-23T18:18:08.161Z,87.56
2022-10-23T18:23:11.468Z,87.50
2022-10-23T18:28:14.496Z,87.30
2022-10-23T18:33:18.705Z,87.96
2022-10-23T18:38:21.843Z,87.99
2022-10-23T18:43:42.450Z,88.19
2022-10-23T18:48:50.945Z,88.39
2022-10-23T18:53:55.106Z,88.36
2022-10-23T18:59:01.957Z,88.43
2022-10-23T19:04:06.578Z,88.24
2022-10-23T19:09:13.810Z,88.03
2022-10-23T19:14:18.365Z,87.78
2022-10-23T19:19:30.483Z,87.89
2022-10-23T19:24:51.141Z,88.64
2022-10-23T19:29:55.546Z,88.69
2022-10-23T19:35:01.390Z,88.23
2022-10-23T19:40:07.100Z,87.99
2022-10-23T19:45:14.821Z,87.63
2022-10-23T19:50:18.101Z,88.15
2022-10-23T19:55:21.206Z,88.57
2022-10-23T20:00:24.434Z,88.55
2022-10-23T20:05:27.830Z,88.38
2022-10-23T20:10:31.039Z,88.57
2022-10-23T20:15:38.223Z,88.67
2022-10-23T20:20:43.175Z,88.79
2022-10-23T20:25:46.202Z,89.11
2022-10-23T20:30:49.300Z,89.43
2022-10-23T20:35:53.053Z,89.43
2022-10-23T20:41:00.506Z,89.51
2022-10-23T20:46:06.270Z,89.25
2022-10-23T20:51:15.612Z,89.52
2022-10-23T20:56:32.446Z,89.71
2022-10-23T21:01:36.466Z,89.89
2022-10-23T21:06:57.484Z,89.92
2022-10-23T21:12:04.759Z,89.67
2022-10-23T21:17:09.171Z,89.69
2022-10-23T21:22:12.401Z,89.36
2022-10-23T21:27:15.592Z,89.54
2022-10-23T21:32:21.159Z,89.75
2022-10-23T21:37:25.798Z,89.79
2022-10-23T21:47:38.767Z,89.75
2022-10-23T21:52:42.267Z,89.49
2022-10-23T21:57:45.592Z,89.57
2022-10-23T22:02:49.134Z,89.93
2022-10-23T22:07:52.418Z,89.98
2022-10-23T22:12:55.522Z,89.97
2022-10-23T22:18:00.165Z,90.04
2022-10-23T22:23:03.183Z,90.11
2022-10-23T22:28:06.378Z,89.89
2022-10-23T22:33:09.392Z,89.96
2022-10-23T22:38:12.490Z,90.07
2022-10-23T22:43:15.496Z,90.03
2022-10-23T22:48:18.645Z,89.88
2022-10-23T22:53:21.703Z,89.77
2022-10-23T22:58:26.451Z,89.92
2022-10-23T23:03:29.630Z,89.80
2022-10-23T23:08:34.418Z,90.02
2022-10-23T23:13:37.406Z,90.06
2022-10-23T23:18:40.445Z,89.99
2022-10-23T23:23:43.720Z,89.78
2022-10-23T23:28:52.113Z,89.75
2022-10-23T23:33:55.869Z,89.64
2022-10-23T23:38:59.429Z,89.64
2022-10-23T23:44:02.495Z,90.01
2022-10-23T23:49:05.528Z,90.13
2022-10-23T23:54:08.809Z,90.13
2022-10-23T23:59:11.912Z,90.18
